createdAt,value
2022-12-14T00:01:40.173Z,-4.26
2022-12-14T00:04:07.108Z,-3.98
2022-12-14T00:06:34.427Z,-4.11
2022-12-14T00:09:03.755Z,-4.10
2022-12-14T00:11:32.694Z,-4.08
2022-12-14T00:14:01.579Z,-4.11
2022-12-14T00:16:31.744Z,-4.07
2022-12-14T00:19:00.440Z,-4.32
2022-12-14T00:21:28.526Z,-4.23
2022-12-14T00:23:57.818Z,-4.49
2022-12-14T00:26:27.583Z,-4.28
2022-12-14T00:28:56.067Z,-4.34
2022-12-14T00:31:24.733Z,-4.58
2022-12-14T00:33:52.695Z,-4.44
2022-12-14T00:36:19.800Z,-4.66
2022-12-14T00:38:46.686Z,-4.46
2022-12-14T00:41:13.859Z,-4.59
2022-12-14T00:43:41.249Z,-4.67
2022-12-14T00:46:08.741Z,-4.52
2022-12-14T00:48:35.990Z,-4.43
2022-12-14T00:51:02.913Z,-4.19
2022-12-14T00:53:30.211Z,-4.13
2022-12-14T00:55:57.281Z,-4.24
2022-12-14T00:58:25.340Z,-4.11
2022-12-14T01:01:01.541Z,-4.16
2022-12-14T01:03:29.106Z,-4.17
2022-12-14T01:05:56.524Z,-4.29
2022-12-14T01:08:23.995Z,-4.28
2022-12-14T01:10:51.751Z,-4.23
2022-12-14T01:13:18.958Z,-4.23
2022-12-14T01:15:46.059Z,-4.06
2022-12-14T01:18:13.207Z,-4.02
2022-12-14T01:20:40.073Z,-4.05
2022-12-14T01:23:07.286Z,-4.32
2022-12-14T01:25:34.505Z,-4.22
2022-12-14T01:28:01.396Z,-4.32
2022-12-14T01:30:28.401Z,-4.35
2022-12-14T01:32:55.372Z,-4.30
2022-12-14T01:35:22.546Z,-4.49
2022-12-14T01:37:49.715Z,-4.58
2022-12-14T01:40:17.883Z,-4.27
2022-12-14T01:42:44.884Z,-4.22
2022-12-14T01:45:21.723Z,-4.28
2022-12-14T01:47:55.037Z,-4.29
2022-12-14T01:50:45.357Z,-4.47
2022-12-14T01:53:17.712Z,-4.72
2022-12-14T01:55:49.796Z,-4.45
2022-12-14T01:58:20.157Z,-4.40
2022-12-14T02:00:47.432Z,-4.44
2022-12-14T02:03:14.439Z,-4.30
2022-12-14T02:05:48.515Z,-4.47
2022-12-14T02:08:17.508Z,-4.32
2022-12-14T02:10:45.654Z,-4.55
2022-12-14T02:13:19.734Z,-4.34
2022-12-14T02:15:47.079Z,-4.40
2022-12-14T02:18:34.848Z,-4.52
2022-12-14T02:21:39.950Z,-4.33
2022-12-14T02:24:10.042Z,-4.36
2022-12-14T02:27:01.611Z,-4.31
2022-12-14T02:29:46.417Z,-4.25
2022-12-14T02:32:38.360Z,-4.36
2022-12-14T02:35:23.764Z,-4.34
2022-12-14T02:38:37.575Z,-4.26
2022-12-14T02:41:15.363Z,-4.36
2022-12-14T02:43:47.322Z,-4.43
2022-12-14T02:46:48.797Z,-4.58
2022-12-14T02:49:23.451Z,-4.57
2022-12-14T02:52:12.147Z,-4.60
2022-12-14T02:55:03.397Z,-4.65
2022-12-14T02:57:40.666Z,-4.74
2022-12-14T03:00:09.108Z,-4.73
2022-12-14T03:02:40.465Z,-4.50
2022-12-14T03:05:10.807Z,-4.60
2022-12-14T03:07:51.261Z,-4.57
2022-12-14T03:10:48.315Z,-4.47
2022-12-14T03:13:42.276Z,-4.51
2022-12-14T03:16:20.290Z,-4.65
2022-12-14T03:18:54.919Z,-4.79
2022-12-14T03:21:26.690Z,-4.69
2022-12-14T03:23:56.490Z,-4.55
2022-12-14T03:26:29.524Z,-4.53
2022-12-14T03:29:02.946Z,-4.72
2022-12-14T03:31:43.640Z,-4.73
2022-12-14T03:34:18.726Z,-4.70
2022-12-14T03:37:09.571Z,-4.68
2022-12-14T03:39:39.550Z,-4.72
2022-12-14T03:42:39.805Z,-4.50
2022-12-14T03:45:22.271Z,-4.58
2022-12-14T03:48:20.259Z,-4.53
2022-12-14T03:51:25.600Z,-4.68
2022-12-14T03:54:15.243Z,-4.63
2022-12-14T03:56:53.013Z,-4.70
2022-12-14T03:59:34.655Z,-4.78
2022-12-14T04:02:09.041Z,-4.83
2022-12-14T04:05:29.434Z,-4.90
2022-12-14T04:07:56.641Z,-4.87
2022-12-14T04:10:48.178Z,-5.13
2022-12-14T04:13:40.191Z,-5.10
2022-12-14T04:16:33.445Z,-5.08
2022-12-14T04:19:05.499Z,-4.95
2022-12-14T04:21:51.267Z,-4.97
2022-12-14T04:24:40.682Z,-5.02
2022-12-14T04:27:39.792Z,-4.97
2022-12-14T04:30:08.273Z,-4.95
2022-12-14T04:32:41.566Z,-5.08
2022-12-14T04:35:34.092Z,-5.01
2022-12-14T04:38:33.569Z,-4.80
2022-12-14T04:41:06.194Z,-5.12
2022-12-14T04:43:37.330Z,-4.98
2022-12-14T04:46:09.392Z,-4.88
2022-12-14T04:48:39.789Z,-5.02
2022-12-14T04:51:23.338Z,-5.08
2022-12-14T04:53:54.720Z,-4.88
2022-12-14T04:56:40.216Z,-4.74
2022-12-14T04:59:07.917Z,-4.78
2022-12-14T05:02:04.341Z,-4.55
2022-12-14T05:04:55.334Z,-4.57
2022-12-14T05:07:30.377Z,-4.67
2022-12-14T05:10:03.726Z,-4.76
2022-12-14T05:12:36.650Z,-4.51
2022-12-14T05:15:07.385Z,-4.44
2022-12-14T05:17:39.830Z,-4.75
2022-12-14T05:20:14.535Z,-4.52
2022-12-14T05:22:41.998Z,-4.47
2022-12-14T05:25:09.387Z,-4.42
2022-12-14T05:27:36.546Z,-4.45
2022-12-14T05:30:04.400Z,-4.30
2022-12-14T05:32:31.989Z,-4.47
2022-12-14T05:34:59.318Z,-4.44
2022-12-14T05:37:29.600Z,-4.63
2022-12-14T05:39:56.676Z,-4.43
2022-12-14T05:42:23.930Z,-4.40
2022-12-14T05:44:51.087Z,-4.46
2022-12-14T05:47:19.013Z,-4.40
2022-12-14T05:49:46.069Z,-4.46
2022-12-14T05:52:17.067Z,-4.56
2022-12-14T05:54:44.082Z,-4.57
2022-12-14T05:57:11.156Z,-4.36
2022-12-14T05:59:37.987Z,-4.35
2022-12-14T06:02:05.705Z,-4.71
2022-12-14T06:04:32.941Z,-4.29
2022-12-14T06:07:00.147Z,-4.34
2022-12-14T06:09:27.350Z,-4.26
2022-12-14T06:11:56.709Z,-4.49
2022-12-14T06:14:24.634Z,-4.26
2022-12-14T06:16:51.684Z,-4.33
2022-12-14T06:19:19.320Z,-4.27
2022-12-14T06:21:46.300Z,-4.53
2022-12-14T06:24:13.932Z,-4.33
2022-12-14T06:26:41.337Z,-4.56
2022-12-14T06:29:14.139Z,-4.68
2022-12-14T06:31:41.166Z,-4.56
2022-12-14T06:34:10.147Z,-4.82
2022-12-14T06:36:38.970Z,-4.57
2022-12-14T06:39:09.269Z,-4.56
2022-12-14T06:41:36.454Z,-4.39
2022-12-14T06:44:10.158Z,-4.26
2022-12-14T06:46:37.408Z,-4.41
2022-12-14T06:49:06.458Z,-4.22
2022-12-14T06:51:39.622Z,-4.13
2022-12-14T06:54:09.205Z,-3.97
2022-12-14T06:56:37.123Z,-4.15
2022-12-14T06:59:05.464Z,-4.23
2022-12-14T07:01:32.910Z,-4.07
2022-12-14T07:04:00.392Z,-4.23
2022-12-14T07:06:31.561Z,-3.96
2022-12-14T07:08:59.623Z,-4.03
2022-12-14T07:11:28.626Z,-4.04
2022-12-14T07:13:56.674Z,-4.15
2022-12-14T07:16:25.503Z,-4.02
2022-12-14T07:18:54.297Z,-4.02
2022-12-14T07:21:22.737Z,-4.02
2022-12-14T07:23:51.846Z,-4.27
2022-12-14T07:26:24.597Z,-3.97
2022-12-14T07:28:55.765Z,-4.19
2022-12-14T07:31:28.372Z,-4.03
2022-12-14T07:33:57.419Z,-3.87
2022-12-14T07:36:26.656Z,-4.06
2022-12-14T07:38:55.709Z,-3.94
2022-12-14T07:41:41.827Z,-3.83
2022-12-14T07:44:09.686Z,-3.93
2022-12-14T07:46:37.194Z,-4.01
2022-12-14T07:49:04.498Z,-4.01
2022-12-14T07:51:35.933Z,-4.08
2022-12-14T07:54:05.618Z,-3.94
2022-12-14T07:56:34.866Z,-3.81
2022-12-14T07:59:04.331Z,-3.79
2022-12-14T08:01:34.094Z,-3.76
2022-12-14T08:04:09.694Z,-3.78
2022-12-14T08:06:37.438Z,-3.83
2022-12-14T08:09:05.344Z,-3.76
2022-12-14T08:11:32.581Z,-3.64
2022-12-14T08:14:01.175Z,-3.72
2022-12-14T08:16:28.553Z,-4.05
2022-12-14T08:18:57.629Z,-4.11
2022-12-14T08:21:26.280Z,-3.95
2022-12-14T08:23:55.220Z,-4.07
2022-12-14T08:26:24.914Z,-4.01
2022-12-14T08:28:56.613Z,-4.18
2022-12-14T08:31:27.982Z,-4.00
2022-12-14T08:33:55.696Z,-4.05
2022-12-14T08:36:25.469Z,-3.96
2022-12-14T08:38:54.988Z,-3.66
2022-12-14T08:41:23.162Z,-3.80
2022-12-14T08:43:58.391Z,-3.38
2022-12-14T08:46:32.777Z,-3.68
2022-12-14T08:49:00.113Z,-3.69
2022-12-14T08:51:28.374Z,-3.55
2022-12-14T08:54:00.031Z,-3.62
2022-12-14T08:56:28.837Z,-3.80
2022-12-14T08:58:57.313Z,-3.88
2022-12-14T09:01:33.367Z,-3.91
2022-12-14T09:04:06.645Z,-4.00
2022-12-14T09:06:39.269Z,-3.89
2022-12-14T09:09:15.562Z,-4.00
2022-12-14T09:11:44.325Z,-3.74
2022-12-14T09:14:11.447Z,-3.84
2022-12-14T09:16:41.173Z,-3.99
2022-12-14T09:19:08.306Z,-4.24
2022-12-14T09:21:38.786Z,-4.18
2022-12-14T09:24:09.293Z,-4.32
2022-12-14T09:26:36.412Z,-4.52
2022-12-14T09:29:03.800Z,-4.61
2022-12-14T09:31:30.894Z,-4.63
2022-12-14T09:34:01.021Z,-4.52
2022-12-14T09:36:29.024Z,-4.57
2022-12-14T09:38:57.814Z,-4.49
2022-12-14T09:41:33.766Z,-4.44
2022-12-14T09:44:25.655Z,-4.43
2022-12-14T09:46:58.553Z,-4.45
2022-12-14T09:49:30.467Z,-4.46
2022-12-14T09:52:01.829Z,-4.40
2022-12-14T09:54:35.578Z,-4.44
2022-12-14T09:57:20.385Z,-4.36
2022-12-14T09:59:52.989Z,-4.36
2022-12-14T10:02:34.130Z,-4.27
2022-12-14T10:05:30.395Z,-4.20
2022-12-14T10:08:26.732Z,-4.21
2022-12-14T10:11:02.594Z,-4.28
2022-12-14T10:13:38.300Z,-4.15
2022-12-14T10:16:14.420Z,-4.05
2022-12-14T10:18:59.389Z,-3.99
2022-12-14T10:21:32.732Z,-3.96
2022-12-14T10:24:04.643Z,-4.00
2022-12-14T10:26:38.560Z,-4.23
2022-12-14T10:29:15.235Z,-4.07
2022-12-14T10:32:02.190Z,-4.07
2022-12-14T10:34:34.928Z,-3.88
2022-12-14T10:37:20.384Z,-3.90
2022-12-14T10:40:04.624Z,-3.99
2022-12-14T10:42:49.982Z,-3.71
2022-12-14T10:45:44.106Z,-3.72
2022-12-14T10:48:45.345Z,-3.68
2022-12-14T10:51:33.882Z,-3.70
2022-12-14T10:54:20.155Z,-3.63
2022-12-14T10:56:50.495Z,-3.94
2022-12-14T10:59:36.734Z,-3.74
2022-12-14T11:02:20.797Z,-3.67
2022-12-14T11:04:57.359Z,-3.72
2022-12-14T11:07:50.131Z,-3.54
2022-12-14T11:10:19.076Z,-3.64
2022-12-14T11:13:16.515Z,-3.66
2022-12-14T11:15:49.126Z,-3.83
2022-12-14T11:18:18.756Z,-3.71
2022-12-14T11:21:03.156Z,-3.70
2022-12-14T11:23:38.734Z,-3.66
2022-12-14T11:26:32.810Z,-3.74
2022-12-14T11:29:02.344Z,-3.78
2022-12-14T11:32:02.120Z,-3.95
2022-12-14T11:34:37.956Z,-3.73
2022-12-14T11:37:23.809Z,-3.71
2022-12-14T11:40:06.845Z,-3.83
2022-12-14T11:42:37.346Z,-3.83
2022-12-14T11:45:25.509Z,-3.90
2022-12-14T11:48:09.760Z,-4.07
2022-12-14T11:50:37.058Z,-4.05
2022-12-14T11:53:11.283Z,-4.04
2022-12-14T11:55:44.328Z,-4.06
2022-12-14T11:58:26.494Z,-3.89
2022-12-14T12:01:00.980Z,-4.03
2022-12-14T12:03:33.597Z,-4.04
2022-12-14T12:06:05.177Z,-4.03
2022-12-14T12:08:38.268Z,-4.17
2022-12-14T12:11:16.540Z,-4.05
2022-12-14T12:13:47.740Z,-4.14
2022-12-14T12:16:20.067Z,-4.06
2022-12-14T12:19:07.884Z,-4.19
2022-12-14T12:21:41.861Z,-4.08
2022-12-14T12:24:21.457Z,-3.93
2022-12-14T12:26:55.506Z,-4.05
2022-12-14T12:29:47.757Z,-4.05
2022-12-14T12:32:34.349Z,-4.07
2022-12-14T12:35:14.302Z,-4.08
2022-12-14T12:37:56.338Z,-4.25
2022-12-14T12:40:34.566Z,-4.06
2022-12-14T12:43:13.110Z,-4.32
2022-12-14T12:45:52.045Z,-4.23
2022-12-14T12:48:29.582Z,-4.40
2022-12-14T12:51:04.150Z,-4.33
2022-12-14T12:53:34.618Z,-4.24
2022-12-14T12:56:28.300Z,-4.32
2022-12-14T12:58:56.608Z,-4.32
2022-12-14T13:01:33.634Z,-4.31
2022-12-14T13:04:05.879Z,-4.53
2022-12-14T13:07:01.795Z,-4.45
2022-12-14T13:09:34.805Z,-4.44
2022-12-14T13:12:03.445Z,-4.57
2022-12-14T13:14:49.672Z,-4.61
2022-12-14T13:18:06.741Z,-4.57
2022-12-14T13:20:34.906Z,-4.56
2022-12-14T13:23:28.349Z,-4.67
2022-12-14T13:26:00.785Z,-4.48
2022-12-14T13:29:17.303Z,-4.48
2022-12-14T13:32:05.526Z,-4.51
2022-12-14T13:34:57.404Z,-4.49
2022-12-14T13:38:07.842Z,-4.55
2022-12-14T13:40:53.542Z,-4.55
2022-12-14T13:43:39.350Z,-4.47
2022-12-14T13:46:17.867Z,-4.61
2022-12-14T13:48:50.489Z,-4.47
2022-12-14T13:51:32.181Z,-4.50
2022-12-14T13:54:03.025Z,-4.46
2022-12-14T13:56:35.098Z,-4.45
2022-12-14T13:59:06.776Z,-4.61
2022-12-14T14:01:50.917Z,-4.43
2022-12-14T14:04:19.679Z,-4.41
2022-12-14T14:06:51.814Z,-4.38
2022-12-14T14:09:34.124Z,-4.32
2022-12-14T14:12:28.946Z,-4.29
2022-12-14T14:15:19.974Z,-4.48
2022-12-14T14:17:53.531Z,-4.47
2022-12-14T14:20:47.023Z,-4.28
2022-12-14T14:23:13.951Z,-4.26
2022-12-14T14:25:54.299Z,-4.22
2022-12-14T14:28:29.140Z,-4.27
2022-12-14T14:31:00.950Z,-4.07
2022-12-14T14:33:46.481Z,-4.13
2022-12-14T14:36:36.089Z,-4.13
2022-12-14T14:39:55.038Z,-4.35
2022-12-14T14:42:22.469Z,-4.06
2022-12-14T14:44:54.461Z,-4.11
2022-12-14T14:47:31.164Z,-4.35
2022-12-14T14:50:02.155Z,-4.33
2022-12-14T14:52:39.217Z,-4.13
2022-12-14T14:55:53.442Z,-4.06
2022-12-14T14:58:29.140Z,-4.07
2022-12-14T15:01:02.193Z,-4.13
2022-12-14T15:03:41.224Z,-4.23
2022-12-14T15:06:14.543Z,-4.27
2022-12-14T15:08:55.848Z,-4.16
2022-12-14T15:11:24.492Z,-4.16
2022-12-14T15:14:01.332Z,-4.09
2022-12-14T15:16:43.316Z,-4.03
2022-12-14T15:19:36.048Z,-4.08
2022-12-14T15:22:06.927Z,-4.18
2022-12-14T15:24:44.305Z,-4.26
2022-12-14T15:27:24.405Z,-4.00
2022-12-14T15:29:52.331Z,-3.96
2022-12-14T15:32:22.834Z,-4.02
2022-12-14T15:34:57.370Z,-4.07
2022-12-14T15:37:41.709Z,-3.94
2022-12-14T15:40:22.497Z,-3.99
2022-12-14T15:42:53.103Z,-4.02
2022-12-14T15:45:22.919Z,-4.09
2022-12-14T15:47:50.783Z,-4.08
2022-12-14T15:50:34.175Z,-4.09
2022-12-14T15:53:38.758Z,-4.02
2022-12-14T15:56:42.076Z,-4.11
2022-12-14T15:59:22.343Z,-4.29
2022-12-14T16:02:01.408Z,-4.17
2022-12-14T16:04:32.615Z,-4.16
2022-12-14T16:07:15.105Z,-3.99
2022-12-14T16:09:49.977Z,-4.07
2022-12-14T16:12:44.393Z,-4.03
2022-12-14T16:15:24.739Z,-4.08
2022-12-14T16:18:02.090Z,-3.99
2022-12-14T16:20:33.023Z,-4.22
2022-12-14T16:23:28.269Z,-3.93
2022-12-14T16:25:55.483Z,-3.89
2022-12-14T16:28:34.988Z,-3.82
2022-12-14T16:31:08.467Z,-3.88
2022-12-14T16:33:37.092Z,-3.91
2022-12-14T16:36:08.497Z,-4.20
2022-12-14T16:38:58.133Z,-4.01
2022-12-14T16:41:51.478Z,-4.08
2022-12-14T16:44:37.387Z,-4.02
2022-12-14T16:47:26.279Z,-4.10
2022-12-14T16:50:00.083Z,-3.99
2022-12-14T16:52:32.817Z,-3.94
2022-12-14T16:55:15.838Z,-3.94
2022-12-14T16:57:49.084Z,-3.90
2022-12-14T17:00:32.267Z,-4.09
2022-12-14T17:03:19.799Z,-4.13
2022-12-14T17:05:56.396Z,-4.13
2022-12-14T17:08:23.405Z,-4.09
2022-12-14T17:10:51.360Z,-3.96
2022-12-14T17:13:18.419Z,-4.07
2022-12-14T17:16:00.718Z,-3.96
2022-12-14T17:18:32.243Z,-4.10
2022-12-14T17:20:59.907Z,-4.09
2022-12-14T17:23:27.765Z,-3.99
2022-12-14T17:25:55.013Z,-3.88
2022-12-14T17:28:27.264Z,-3.90
2022-12-14T17:30:57.756Z,-3.92
2022-12-14T17:33:27.060Z,-3.95
2022-12-14T17:35:57.351Z,-4.00
2022-12-14T17:38:27.523Z,-3.99
2022-12-14T17:40:54.600Z,-4.08
2022-12-14T17:43:24.495Z,-3.97
2022-12-14T17:45:53.198Z,-3.94
2022-12-14T17:48:28.794Z,-4.09
2022-12-14T17:50:56.244Z,-3.92
2022-12-14T17:53:30.604Z,-3.91
2022-12-14T17:55:58.978Z,-3.93
2022-12-14T17:58:26.032Z,-4.06
2022-12-14T18:01:02.144Z,-3.95
2022-12-14T18:03:36.666Z,-3.92
2022-12-14T18:06:06.287Z,-4.00
2022-12-14T18:08:33.385Z,-4.03
2022-12-14T18:11:02.063Z,-4.00
2022-12-14T18:16:16.229Z,-4.19
2022-12-14T18:18:44.133Z,-4.00
2022-12-14T18:21:21.836Z,-3.97
2022-12-14T18:23:49.781Z,-3.97
2022-12-14T18:26:21.181Z,-4.00
2022-12-14T18:28:49.973Z,-4.21
2022-12-14T18:31:22.319Z,-4.00
2022-12-14T18:33:52.877Z,-4.25
2022-12-14T18:36:21.728Z,-4.08
2022-12-14T18:38:50.019Z,-3.92
2022-12-14T18:41:23.172Z,-3.92
2022-12-14T18:43:51.378Z,-3.92
2022-12-14T18:46:18.534Z,-3.94
2022-12-14T18:48:45.835Z,-4.09
2022-12-14T18:51:16.266Z,-3.96
2022-12-14T18:53:43.791Z,-4.05
2022-12-14T18:56:12.074Z,-4.10
2022-12-14T18:58:45.437Z,-4.09
2022-12-14T19:01:21.691Z,-4.04
2022-12-14T19:03:50.794Z,-4.06
2022-12-14T19:06:43.418Z,-4.02
2022-12-14T19:09:07.910Z,-4.04
2022-12-14T19:11:44.705Z,-4.16
2022-12-14T19:14:12.340Z,-4.34
2022-12-14T19:16:40.926Z,-4.20
2022-12-14T19:19:08.498Z,-4.14
2022-12-14T19:21:36.091Z,-4.15
2022-12-14T19:24:03.786Z,-4.08
2022-12-14T19:26:31.456Z,-4.12
2022-12-14T19:28:59.206Z,-4.33
2022-12-14T19:31:26.897Z,-4.27
2022-12-14T19:33:54.596Z,-4.33
2022-12-14T19:36:22.998Z,-4.20
2022-12-14T19:38:50.788Z,-4.39
2022-12-14T19:41:20.757Z,-4.24
2022-12-14T19:43:48.636Z,-4.16
2022-12-14T19:46:17.925Z,-4.18
2022-12-14T19:48:45.906Z,-4.44
2022-12-14T19:51:13.786Z,-4.34
2022-12-14T19:53:46.067Z,-4.27
2022-12-14T19:56:18.489Z,-4.45
2022-12-14T19:58:47.890Z,-4.50
2022-12-14T20:01:18.097Z,-4.30
2022-12-14T20:03:46.289Z,-4.52
2022-12-14T20:06:13.540Z,-4.51
2022-12-14T20:08:40.822Z,-4.40
2022-12-14T20:11:10.909Z,-4.50
2022-12-14T20:13:38.565Z,-4.61
2022-12-14T20:16:06.196Z,-4.46
2022-12-14T20:18:33.816Z,-4.51
2022-12-14T20:21:03.705Z,-4.49
2022-12-14T20:23:32.444Z,-4.51
2022-12-14T20:26:01.454Z,-4.57
2022-12-14T20:28:29.243Z,-4.55
2022-12-14T20:30:56.760Z,-4.54
2022-12-14T20:33:29.528Z,-4.52
2022-12-14T20:35:57.635Z,-4.48
2022-12-14T20:38:24.973Z,-4.38
2022-12-14T20:40:52.812Z,-4.51
2022-12-14T20:43:20.441Z,-4.53
2022-12-14T20:45:47.593Z,-4.47
2022-12-14T20:48:14.526Z,-4.43
2022-12-14T20:50:43.637Z,-4.48
2022-12-14T20:53:10.833Z,-4.42
2022-12-14T20:55:37.847Z,-4.35
2022-12-14T20:58:04.807Z,-4.41
2022-12-14T21:00:32.113Z,-4.40
2022-12-14T21:02:59.380Z,-4.52
2022-12-14T21:05:26.525Z,-4.37
2022-12-14T21:07:53.351Z,-4.34
2022-12-14T21:10:20.263Z,-4.30
2022-12-14T21:12:50.483Z,-4.35
2022-12-14T21:15:17.638Z,-4.46
2022-12-14T21:17:44.940Z,-4.56
2022-12-14T21:20:12.609Z,-4.53
2022-12-14T21:22:39.618Z,-4.52
2022-12-14T21:25:07.647Z,-4.61
2022-12-14T21:27:38.598Z,-4.48
2022-12-14T21:30:08.501Z,-4.45
2022-12-14T21:32:37.227Z,-4.60
2022-12-14T21:35:05.067Z,-4.49
2022-12-14T21:37:32.123Z,-4.45
2022-12-14T21:39:59.032Z,-4.42
2022-12-14T21:42:26.605Z,-4.40
2022-12-14T21:44:54.367Z,-4.55
2022-12-14T21:47:27.131Z,-4.45
2022-12-14T21:49:54.877Z,-4.54
2022-12-14T21:52:24.099Z,-4.47
2022-12-14T21:54:51.125Z,-4.46
2022-12-14T21:57:39.197Z,-4.42
2022-12-14T22:00:08.356Z,-4.41
2022-12-14T22:02:42.525Z,-4.54
2022-12-14T22:05:10.558Z,-4.57
2022-12-14T22:07:37.631Z,-4.61
2022-12-14T22:10:04.778Z,-4.46
2022-12-14T22:12:31.932Z,-4.45
2022-12-14T22:14:58.953Z,-4.42
2022-12-14T22:17:26.002Z,-4.42
2022-12-14T22:19:55.183Z,-4.41
2022-12-14T22:22:22.468Z,-4.57
2022-12-14T22:24:50.000Z,-4.48
2022-12-14T22:27:17.662Z,-4.53
2022-12-14T22:29:44.610Z,-4.81
2022-12-14T22:32:12.710Z,-4.78
2022-12-14T22:34:39.723Z,-4.67
2022-12-14T22:37:06.955Z,-4.71
2022-12-14T22:39:34.634Z,-4.58
2022-12-14T22:42:01.659Z,-4.76
2022-12-14T22:44:28.567Z,-4.57
2022-12-14T22:46:55.484Z,-4.66
2022-12-14T22:49:22.792Z,-4.67
2022-12-14T22:51:50.696Z,-4.48
2022-12-14T22:54:26.070Z,-4.62
2022-12-14T22:56:59.663Z,-4.65
2022-12-14T23:00:01.585Z,-4.65
2022-12-14T23:02:31.623Z,-4.53
2022-12-14T23:04:58.977Z,-4.60
2022-12-14T23:07:26.040Z,-4.74
2022-12-14T23:10:11.652Z,-4.59
2022-12-14T23:12:58.204Z,-4.71
2022-12-14T23:15:44.509Z,-4.62
2022-12-14T23:18:29.873Z,-4.78
2022-12-14T23:21:16.094Z,-4.78
2022-12-14T23:24:04.498Z,-4.87
2022-12-14T23:26:49.988Z,-4.79
2022-12-14T23:29:35.340Z,-4.87
2022-12-14T23:32:21.185Z,-4.89
2022-12-14T23:35:06.775Z,-4.73
2022-12-14T23:37:52.416Z,-4.67
2022-12-14T23:40:37.995Z,-4.74
2022-12-14T23:43:41.542Z,-4.68
2022-12-14T23:46:27.229Z,-4.84
2022-12-14T23:49:16.015Z,-4.69
2022-12-14T23:52:01.857Z,-4.88
2022-12-14T23:54:47.887Z,-4.95
2022-12-14T23:57:33.737Z,-4.80
